Time;durP1;ratioP1;P1;durP2;ratioP2;P2;SDS_P1;SDS_P2;PMS_P1;PMS_P2;Temp;Humidity;BMP_temperature;BMP_pressure;BME280_temperature;BME280_humidity;BME280_pressure;Samples;Min_cycle;Max_cycle;Signal;HPM_P1;HPM_P2
2021/04/19 00:00:43;;;;;;;18.30;16.30;;;8.30;99.90;;;;;;5017433;28;20198;-64
2021/04/19 00:03:10;;;;;;;18.67;16.20;;;8.30;99.90;;;;;;5028210;28;20837;-65
2021/04/19 00:05:36;;;;;;;17.70;14.87;;;8.30;99.90;;;;;;5026672;28;20430;-64
2021/04/19 00:08:02;;;;;;;18.73;16.83;;;8.30;99.90;;;;;;5027932;28;20435;-64
2021/04/19 00:10:28;;;;;;;17.40;15.47;;;8.30;99.90;;;;;;5032138;28;20209;-64
2021/04/19 00:12:54;;;;;;;18.33;16.43;;;8.30;99.90;;;;;;5022876;28;20484;-64
2021/04/19 00:15:21;;;;;;;18.47;14.80;;;8.30;99.90;;;;;;5032499;28;20244;-64
2021/04/19 00:17:47;;;;;;;18.53;15.33;;;8.30;99.90;;;;;;5030782;28;20198;-64
2021/04/19 00:20:13;;;;;;;19.47;15.63;;;8.30;99.90;;;;;;5030661;28;20538;-64
2021/04/19 00:22:39;;;;;;;20.97;16.87;;;8.20;99.90;;;;;;5025324;28;20544;-65
2021/04/19 00:25:07;;;;;;;17.70;15.10;;;8.10;99.90;;;;;;5032330;28;20543;-67
2021/04/19 00:27:33;;;;;;;18.27;15.20;;;8.00;99.90;;;;;;5031360;28;20196;-64
2021/04/19 00:29:59;;;;;;;18.70;16.67;;;8.00;99.90;;;;;;5028784;28;20512;-64
2021/04/19 00:32:24;;;;;;;18.70;16.70;;;8.00;99.90;;;;;;5027698;28;20424;-64
2021/04/19 00:34:51;;;;;;;17.10;15.40;;;7.90;99.90;;;;;;5023924;28;20182;-65
2021/04/19 00:37:16;;;;;;;19.20;16.40;;;7.90;99.90;;;;;;5033031;28;20683;-64
2021/04/19 00:39:42;;;;;;;19.80;17.37;;;7.90;99.90;;;;;;5031346;28;20433;-65
2021/04/19 00:42:08;;;;;;;20.70;18.60;;;7.90;99.90;;;;;;5025048;28;20207;-64
2021/04/19 00:44:34;;;;;;;22.80;20.03;;;7.90;99.90;;;;;;5020775;28;20977;-64
2021/04/19 00:47:00;;;;;;;21.47;17.23;;;7.90;99.90;;;;;;5032983;28;20170;-64
2021/04/19 00:49:26;;;;;;;17.70;15.93;;;7.90;99.90;;;;;;5032395;28;20182;-65
2021/04/19 00:51:56;;;;;;;19.57;17.57;;;7.90;99.90;;;;;;5027769;28;20464;-64
2021/04/19 00:54:25;;;;;;;20.07;17.93;;;7.90;99.90;;;;;;5016888;28;20520;-65
2021/04/19 00:56:51;;;;;;;19.37;16.43;;;7.90;99.90;;;;;;5031604;28;20483;-65
2021/04/19 00:59:18;;;;;;;17.80;15.90;;;7.80;99.90;;;;;;5029493;28;20432;-64
2021/04/19 01:01:45;;;;;;;19.90;16.40;;;7.80;99.90;;;;;;5032321;28;20460;-64
2021/04/19 01:04:10;;;;;;;16.90;15.23;;;7.70;99.90;;;;;;5031967;28;20449;-65
2021/04/19 01:06:36;;;;;;;17.87;15.97;;;7.80;99.90;;;;;;5029086;28;20425;-65
2021/04/19 01:09:03;;;;;;;17.40;15.70;;;7.70;99.90;;;;;;5028287;28;20175;-65
2021/04/19 01:11:28;;;;;;;19.70;16.33;;;7.70;99.90;;;;;;5032005;28;20202;-64
2021/04/19 01:13:54;;;;;;;21.20;16.40;;;7.80;99.90;;;;;;5030226;28;20912;-65
2021/04/19 01:16:19;;;;;;;21.43;14.30;;;7.80;99.90;;;;;;5024985;28;20231;-64
2021/04/19 01:18:45;;;;;;;15.80;14.10;;;7.90;99.90;;;;;;5018792;28;20245;-65
2021/04/19 01:21:10;;;;;;;21.03;15.60;;;7.90;99.90;;;;;;5029756;28;20213;-64
2021/04/19 01:23:37;;;;;;;15.73;14.30;;;7.90;99.90;;;;;;5032057;28;20305;-65
2021/04/19 01:26:04;;;;;;;16.37;13.80;;;7.90;99.90;;;;;;5021907;28;20189;-65
2021/04/19 01:28:29;;;;;;;16.20;14.50;;;7.90;99.90;;;;;;5031086;28;20417;-64
2021/04/19 01:30:55;;;;;;;15.33;13.73;;;7.90;99.90;;;;;;5030665;28;20882;-64
2021/04/19 01:33:21;;;;;;;17.13;15.50;;;7.90;99.90;;;;;;5018416;28;20179;-65
2021/04/19 01:35:47;;;;;;;18.20;15.07;;;8.00;99.90;;;;;;5026106;28;20213;-65
2021/04/19 01:38:15;;;;;;;17.90;16.10;;;8.00;99.90;;;;;;5031184;28;20960;-64
2021/04/19 01:40:41;;;;;;;16.80;15.03;;;7.90;99.90;;;;;;5020509;28;20194;-65
2021/04/19 01:43:06;;;;;;;17.63;15.73;;;7.90;99.90;;;;;;5031253;28;20463;-65
2021/04/19 01:45:32;;;;;;;19.17;15.97;;;7.80;99.90;;;;;;5026376;28;20438;-65
2021/04/19 01:47:58;;;;;;;16.23;14.63;;;7.90;99.90;;;;;;5020100;28;20182;-64
2021/04/19 01:50:27;;;;;;;17.17;15.47;;;7.90;99.90;;;;;;5027770;28;20288;-64
2021/04/19 01:52:54;;;;;;;17.20;15.07;;;7.80;99.90;;;;;;5031088;28;20182;-65
2021/04/19 01:55:22;;;;;;;16.97;15.17;;;7.80;99.90;;;;;;5028831;28;20729;-65
2021/04/19 01:57:57;;;;;;;19.60;15.90;;;7.90;99.90;;;;;;5015913;28;20479;-64
2021/04/19 02:00:25;;;;;;;15.90;14.30;;;7.90;99.90;;;;;;5029960;28;20482;-65
2021/04/19 02:03:05;;;;;;;16.90;15.03;;;7.90;99.90;;;;;;5026213;28;20425;-65
2021/04/19 02:05:56;;;;;;;16.30;14.60;;;7.80;99.90;;;;;;5026055;28;20941;-65
2021/04/19 02:08:49;;;;;;;18.00;14.90;;;7.80;99.90;;;;;;5030838;28;20433;-65
2021/04/19 02:11:42;;;;;;;22.93;15.60;;;7.70;99.90;;;;;;5030074;28;20636;-64
2021/04/19 02:14:34;;;;;;;16.90;15.13;;;7.70;99.90;;;;;;5031175;28;20436;-65
2021/04/19 02:17:14;;;;;;;15.80;14.13;;;7.80;99.90;;;;;;5025045;28;20527;-65
2021/04/19 02:19:59;;;;;;;15.87;14.00;;;7.90;99.90;;;;;;5030096;28;20432;-64
2021/04/19 02:22:30;;;;;;;15.90;14.30;;;8.00;99.90;;;;;;5028292;28;20945;-64
2021/04/19 02:25:42;;;;;;;19.37;14.80;;;7.90;99.90;;;;;;5044516;28;20457;-65
2021/04/19 02:28:15;;;;;;;18.83;16.60;;;7.90;99.90;;;;;;5021914;28;20444;-65
2021/04/19 02:30:45;;;;;;;16.97;15.20;;;7.80;99.90;;;;;;5019413;28;20453;-64
2021/04/19 02:33:14;;;;;;;19.30;15.80;;;7.80;99.90;;;;;;5031294;28;20505;-65
2021/04/19 02:35:41;;;;;;;18.67;16.30;;;7.80;99.90;;;;;;5030078;28;20476;-65
2021/04/19 02:38:09;;;;;;;17.73;15.93;;;7.80;99.90;;;;;;5031059;28;20440;-67
2021/04/19 02:40:37;;;;;;;32.60;27.80;;;7.90;99.90;;;;;;5029339;28;20484;-65
2021/04/19 02:43:03;;;;;;;47.20;38.27;;;7.90;99.90;;;;;;5030826;28;20428;-64
2021/04/19 02:45:29;;;;;;;25.20;20.50;;;8.00;99.90;;;;;;5024849;28;20439;-65
2021/04/19 02:47:55;;;;;;;21.17;19.13;;;7.90;99.90;;;;;;5030886;28;20791;-64
2021/04/19 02:50:23;;;;;;;22.13;17.87;;;7.90;99.90;;;;;;5016536;28;20523;-65
2021/04/19 02:52:50;;;;;;;20.40;16.70;;;7.90;99.90;;;;;;5029354;28;20507;-65
2021/04/19 02:55:19;;;;;;;20.30;17.27;;;7.90;99.90;;;;;;5021875;28;20436;-64
2021/04/19 02:57:48;;;;;;;18.77;16.90;;;8.10;99.90;;;;;;5029054;28;20424;-65
2021/04/19 03:00:20;;;;;;;20.77;18.67;;;8.10;99.90;;;;;;5029245;28;20459;-64
2021/04/19 03:02:46;;;;;;;22.30;19.90;;;8.10;99.90;;;;;;5028597;28;20523;-65
2021/04/19 03:05:13;;;;;;;22.13;19.83;;;8.10;99.90;;;;;;5029226;28;20891;-65
2021/04/19 03:07:47;;;;;;;24.77;22.10;;;8.20;99.90;;;;;;5030368;28;20429;-65
2021/04/19 03:10:17;;;;;;;22.23;19.90;;;8.20;99.90;;;;;;5022813;28;20490;-65
2021/04/19 03:12:46;;;;;;;22.47;18.20;;;8.20;99.90;;;;;;5019577;28;20414;-65
2021/04/19 03:15:16;;;;;;;23.77;20.60;;;8.20;99.90;;;;;;5029142;28;20502;-65
2021/04/19 03:17:43;;;;;;;23.60;21.20;;;8.20;99.90;;;;;;5028776;28;20866;-65
2021/04/19 03:20:18;;;;;;;24.37;21.53;;;8.20;99.90;;;;;;5028084;28;20460;-65
2021/04/19 03:22:47;;;;;;;27.80;23.00;;;8.10;99.90;;;;;;5028625;28;20942;-65
2021/04/19 03:25:13;;;;;;;21.77;19.37;;;8.00;99.90;;;;;;5016588;28;20460;-64
2021/04/19 03:27:41;;;;;;;22.70;19.80;;;7.90;99.90;;;;;;5018319;28;20441;-65
2021/04/19 03:30:08;;;;;;;22.47;18.20;;;7.90;99.90;;;;;;5027609;28;20531;-65
2021/04/19 03:32:39;;;;;;;23.17;19.13;;;7.80;99.90;;;;;;5028252;28;20429;-65
2021/04/19 03:35:10;;;;;;;25.97;18.17;;;7.80;99.90;;;;;;5028580;28;20433;-65
2021/04/19 03:37:39;;;;;;;23.40;17.53;;;7.80;99.90;;;;;;5030417;28;20439;-64
2021/04/19 03:40:09;;;;;;;19.67;17.53;;;7.80;99.90;;;;;;5028986;28;20840;-65
2021/04/19 03:42:38;;;;;;;21.30;19.10;;;7.90;99.90;;;;;;5030235;28;20429;-65
2021/04/19 03:45:07;;;;;;;22.27;19.83;;;7.90;99.90;;;;;;5015334;28;20480;-65
2021/04/19 03:47:35;;;;;;;20.33;17.70;;;8.10;99.90;;;;;;5030519;28;20524;-65
2021/04/19 03:52:39;;;;;;;20.27;18.17;;;8.10;99.90;;;;;;5046727;28;20470;-68
2021/04/19 03:55:11;;;;;;;21.20;19.10;;;8.10;99.90;;;;;;5040146;28;20429;-68
2021/04/19 03:57:38;;;;;;;19.70;17.50;;;8.20;99.90;;;;;;5043062;28;20436;-68
2021/04/19 04:00:11;;;;;;;21.37;17.50;;;8.20;99.90;;;;;;5049407;28;20420;-68
2021/04/19 04:02:39;;;;;;;20.93;18.70;;;8.20;99.90;;;;;;5034046;28;21087;-68
2021/04/19 04:05:06;;;;;;;22.70;19.60;;;8.10;99.90;;;;;;5049531;28;20460;-68
2021/04/19 04:07:34;;;;;;;21.73;19.00;;;8.10;99.90;;;;;;5049658;28;20428;-68
2021/04/19 04:10:02;;;;;;;24.73;21.27;;;8.10;99.90;;;;;;5048852;28;20515;-68
2021/04/19 04:12:28;;;;;;;25.30;21.67;;;8.10;99.90;;;;;;5049359;28;20448;-68
2021/04/19 04:14:55;;;;;;;25.83;21.93;;;8.20;99.90;;;;;;5050138;28;20451;-68
2021/04/19 04:17:20;;;;;;;23.90;21.30;;;8.20;99.90;;;;;;5049849;28;20185;-68
2021/04/19 04:19:46;;;;;;;24.40;21.73;;;8.20;99.90;;;;;;5048868;28;20443;-68
2021/04/19 04:22:13;;;;;;;20.80;18.67;;;8.30;99.90;;;;;;5049189;28;20258;-68
2021/04/19 04:24:39;;;;;;;31.17;27.97;;;8.20;99.90;;;;;;5049488;28;20208;-68
2021/04/19 04:27:05;;;;;;;24.70;20.43;;;8.30;99.90;;;;;;5049926;28;20428;-68
2021/04/19 04:29:31;;;;;;;27.87;21.90;;;8.20;99.90;;;;;;5052120;28;20260;-68
2021/04/19 04:31:57;;;;;;;22.87;20.10;;;8.20;99.90;;;;;;5053092;28;20539;-68
2021/04/19 04:34:23;;;;;;;26.23;21.77;;;8.30;99.90;;;;;;5053218;28;20184;-68
2021/04/19 04:36:48;;;;;;;23.60;21.07;;;8.20;99.90;;;;;;5053110;28;20596;-68
2021/04/19 04:39:14;;;;;;;27.93;21.17;;;8.30;99.90;;;;;;5052002;28;20681;-68
2021/04/19 04:41:39;;;;;;;24.80;21.97;;;8.20;99.90;;;;;;5034806;28;20304;-68
2021/04/19 04:44:08;;;;;;;25.80;20.93;;;8.20;99.90;;;;;;5052916;28;20209;-68
2021/04/19 04:46:38;;;;;;;24.33;21.37;;;8.30;99.90;;;;;;5052831;28;20203;-68
2021/04/19 04:49:11;;;;;;;25.83;22.37;;;8.30;99.90;;;;;;5052295;28;20424;-68
2021/04/19 04:51:39;;;;;;;24.97;21.90;;;8.30;99.90;;;;;;5052364;28;20466;-68
2021/04/19 04:54:10;;;;;;;27.80;21.33;;;8.40;99.90;;;;;;5052481;28;20917;-68
2021/04/19 04:56:40;;;;;;;22.57;20.27;;;8.40;99.90;;;;;;5052780;28;20522;-68
2021/04/19 04:59:06;;;;;;;27.53;21.80;;;8.50;99.90;;;;;;5051881;28;20447;-68
2021/04/19 05:01:34;;;;;;;24.43;20.93;;;8.40;99.90;;;;;;5042499;28;20452;-68
2021/04/19 05:04:01;;;;;;;24.07;21.47;;;8.50;99.90;;;;;;5042674;28;20605;-68
2021/04/19 05:06:27;;;;;;;25.70;22.10;;;8.50;99.90;;;;;;5052575;28;20962;-68
2021/04/19 05:08:54;;;;;;;23.77;21.27;;;8.50;99.90;;;;;;5052162;28;20428;-68
2021/04/19 05:11:19;;;;;;;31.43;24.57;;;8.50;99.90;;;;;;5052315;28;20444;-68
2021/04/19 05:13:45;;;;;;;33.40;24.30;;;8.40;99.90;;;;;;5052331;28;20936;-68
2021/04/19 05:16:10;;;;;;;26.17;22.20;;;8.40;99.90;;;;;;5052060;28;20635;-68
2021/04/19 05:18:36;;;;;;;30.23;23.07;;;8.40;99.90;;;;;;5052316;28;20185;-68
2021/04/19 05:21:02;;;;;;;25.43;22.07;;;8.50;99.90;;;;;;5051220;28;20204;-68
2021/04/19 05:23:28;;;;;;;27.50;23.97;;;8.40;99.90;;;;;;5051808;28;20225;-68
2021/04/19 05:25:54;;;;;;;27.00;24.10;;;8.30;99.90;;;;;;5039297;28;20627;-68
2021/04/19 05:28:20;;;;;;;28.37;23.60;;;8.20;99.90;;;;;;5047709;28;20934;-68
2021/04/19 05:30:49;;;;;;;30.43;23.80;;;8.10;99.90;;;;;;5039215;28;20448;-68
2021/04/19 05:33:16;;;;;;;29.17;25.17;;;8.00;99.90;;;;;;5048575;28;20515;-68
2021/04/19 05:35:42;;;;;;;28.03;24.80;;;8.00;99.90;;;;;;5051507;28;20450;-68
2021/04/19 05:38:08;;;;;;;33.37;25.13;;;7.90;99.90;;;;;;5044596;28;20439;-68
2021/04/19 05:40:34;;;;;;;30.90;24.30;;;7.90;99.90;;;;;;5049131;28;20190;-68
2021/04/19 05:43:03;;;;;;;32.10;25.27;;;8.00;99.90;;;;;;5044645;28;20489;-68
2021/04/19 05:45:29;;;;;;;32.93;26.47;;;8.00;99.90;;;;;;5041659;28;20486;-68
2021/04/19 05:47:55;;;;;;;31.97;27.20;;;8.00;99.90;;;;;;5046226;28;20494;-68
2021/04/19 05:50:23;;;;;;;31.50;25.77;;;8.00;99.90;;;;;;5049401;28;20434;-67
2021/04/19 05:52:51;;;;;;;33.20;25.70;;;8.00;99.90;;;;;;5037250;28;20788;-67
2021/04/19 05:55:19;;;;;;;31.43;27.50;;;8.10;99.90;;;;;;5050923;28;20428;-68
2021/04/19 05:58:13;;;;;;;36.10;25.37;;;8.00;99.90;;;;;;5051453;28;20497;-67
2021/04/19 06:00:46;;;;;;;33.60;25.50;;;8.10;99.90;;;;;;5049106;28;20543;-67
2021/04/19 06:03:22;;;;;;;35.73;26.80;;;8.10;99.90;;;;;;5050695;28;20443;-67
2021/04/19 06:06:09;;;;;;;32.67;26.50;;;8.10;99.90;;;;;;5050576;28;20517;-67
2021/04/19 06:08:41;;;;;;;33.10;27.13;;;8.10;99.90;;;;;;5050459;28;20959;-67
2021/04/19 06:11:14;;;;;;;29.43;25.80;;;8.10;99.90;;;;;;5050419;28;21041;-67
2021/04/19 06:13:43;;;;;;;30.73;26.37;;;8.20;99.90;;;;;;5050529;28;20432;-67
2021/04/19 06:16:10;;;;;;;30.80;25.67;;;8.20;99.90;;;;;;5047716;28;20488;-67
2021/04/19 06:18:37;;;;;;;30.97;27.70;;;8.20;99.90;;;;;;5050046;28;21002;-67
2021/04/19 06:21:03;;;;;;;27.50;24.53;;;8.20;99.90;;;;;;5042771;28;20482;-68
2021/04/19 06:23:29;;;;;;;29.77;26.10;;;8.30;99.90;;;;;;5047457;28;20452;-67
2021/04/19 06:25:55;;;;;;;33.73;27.27;;;8.20;99.90;;;;;;5044922;28;20467;-67
2021/04/19 06:28:24;;;;;;;36.00;27.97;;;8.20;99.90;;;;;;5031489;28;20463;-68
2021/04/19 06:30:50;;;;;;;32.67;27.43;;;8.20;99.90;;;;;;5050590;28;20285;-67
2021/04/19 06:33:19;;;;;;;43.43;34.20;;;8.10;99.90;;;;;;5050435;28;20936;-67
2021/04/19 06:35:46;;;;;;;33.60;28.07;;;8.10;99.90;;;;;;5049159;28;20439;-67
2021/04/19 06:38:12;;;;;;;34.83;27.60;;;8.10;99.90;;;;;;5036169;28;20429;-67
2021/04/19 06:40:40;;;;;;;35.10;28.07;;;8.20;99.90;;;;;;5049003;28;20458;-68
2021/04/19 06:43:06;;;;;;;31.70;27.10;;;8.10;99.90;;;;;;5050838;28;20177;-67
2021/04/19 06:45:35;;;;;;;37.97;27.53;;;8.00;99.90;;;;;;5049961;28;20442;-67
2021/04/19 06:48:04;;;;;;;33.00;27.50;;;8.00;99.90;;;;;;5049713;28;20514;-67
2021/04/19 06:50:30;;;;;;;31.03;27.17;;;8.00;99.90;;;;;;5049813;28;20508;-67
2021/04/19 06:52:56;;;;;;;26.70;23.90;;;8.00;99.90;;;;;;5050029;28;20432;-67
2021/04/19 06:55:22;;;;;;;28.07;23.00;;;8.10;99.90;;;;;;5050467;28;20181;-67
2021/04/19 06:57:58;;;;;;;36.50;26.87;;;8.00;99.90;;;;;;5049069;28;20179;-67
2021/04/19 07:00:28;;;;;;;26.60;22.97;;;7.90;99.90;;;;;;5049856;28;20450;-67
2021/04/19 07:02:56;;;;;;;29.90;25.27;;;7.70;99.90;;;;;;5050135;28;20786;-67
2021/04/19 07:05:28;;;;;;;32.40;26.57;;;7.60;99.90;;;;;;5050512;28;20459;-67
2021/04/19 07:08:00;;;;;;;31.20;24.70;;;7.50;99.90;;;;;;5048939;28;20779;-67
2021/04/19 07:10:26;;;;;;;28.53;25.00;;;7.40;99.90;;;;;;5049735;28;20436;-67
2021/04/19 07:12:54;;;;;;;31.30;24.57;;;7.30;99.90;;;;;;5049864;28;20936;-67
2021/04/19 07:15:21;;;;;;;30.20;24.27;;;7.40;99.90;;;;;;5049656;28;20459;-67
2021/04/19 07:17:50;;;;;;;30.83;24.70;;;7.40;99.90;;;;;;5032016;28;20475;-67
2021/04/19 07:20:19;;;;;;;29.90;24.67;;;7.40;99.90;;;;;;5024467;28;20960;-67
2021/04/19 07:22:45;;;;;;;29.57;22.97;;;7.30;99.90;;;;;;5049668;28;20419;-67
2021/04/19 07:25:10;;;;;;;32.67;27.07;;;7.30;99.90;;;;;;5049116;28;20459;-67
2021/04/19 07:27:40;;;;;;;34.47;26.40;;;7.10;99.90;;;;;;5048160;28;20204;-67
2021/04/19 07:30:08;;;;;;;34.83;27.23;;;7.00;99.90;;;;;;5044186;28;20188;-67
2021/04/19 07:32:35;;;;;;;32.37;26.10;;;7.00;99.90;;;;;;5049918;28;20429;-67
2021/04/19 07:35:01;;;;;;;34.20;25.90;;;7.00;99.90;;;;;;5048380;28;20626;-67
2021/04/19 07:37:28;;;;;;;29.37;26.30;;;7.00;99.90;;;;;;5050131;28;20434;-67
2021/04/19 07:39:55;;;;;;;33.40;26.40;;;6.90;99.90;;;;;;5048387;28;20515;-67
2021/04/19 07:42:21;;;;;;;36.13;27.30;;;6.80;99.90;;;;;;5047930;28;20444;-67
2021/04/19 07:44:52;;;;;;;32.03;26.50;;;6.80;99.90;;;;;;5049682;28;20467;-67
2021/04/19 07:47:21;;;;;;;36.17;28.23;;;6.80;99.90;;;;;;5049443;28;20169;-67
2021/04/19 07:50:11;;;;;;;37.73;28.37;;;6.80;99.90;;;;;;5049018;28;20936;-67
2021/04/19 07:52:55;;;;;;;35.43;27.63;;;6.90;99.90;;;;;;5049317;28;20796;-67
2021/04/19 07:55:22;;;;;;;35.83;27.70;;;7.00;99.90;;;;;;5040571;28;20420;-67
2021/04/19 07:57:49;;;;;;;32.80;26.50;;;7.10;99.90;;;;;;5049431;28;20940;-67
2021/04/19 08:00:31;;;;;;;30.57;24.53;;;7.10;99.90;;;;;;5049023;28;20423;-67
2021/04/19 08:03:15;;;;;;;35.77;28.03;;;7.20;99.90;;;;;;5049891;28;20438;-67
2021/04/19 08:05:48;;;;;;;32.23;28.43;;;7.20;99.90;;;;;;5048846;28;20795;-67
2021/04/19 08:08:17;;;;;;;27.23;24.17;;;7.30;99.90;;;;;;5048354;28;20463;-67
2021/04/19 08:10:45;;;;;;;34.43;27.80;;;7.30;99.90;;;;;;5053336;28;20846;-67
2021/04/19 08:13:17;;;;;;;32.60;26.20;;;7.30;99.90;;;;;;5052600;28;20460;-67
2021/04/19 08:15:45;;;;;;;32.67;27.83;;;7.30;99.90;;;;;;5052934;28;20510;-67
2021/04/19 08:18:17;;;;;;;32.43;25.87;;;7.40;99.90;;;;;;5053565;28;20450;-67
2021/04/19 08:20:54;;;;;;;32.90;25.37;;;7.40;99.90;;;;;;5049117;28;20501;-67
2021/04/19 08:23:21;;;;;;;41.03;33.30;;;7.50;99.90;;;;;;5051652;28;20435;-67
2021/04/19 08:25:52;;;;;;;31.53;24.27;;;7.50;99.90;;;;;;5052326;28;20435;-67
2021/04/19 08:28:20;;;;;;;30.50;24.00;;;7.50;99.90;;;;;;5053523;28;20423;-67
2021/04/19 08:30:51;;;;;;;28.33;25.13;;;7.40;99.90;;;;;;5051978;28;20501;-67
2021/04/19 08:33:18;;;;;;;30.07;25.43;;;7.40;99.90;;;;;;5052012;28;20828;-67
2021/04/19 08:35:45;;;;;;;35.60;25.93;;;7.30;99.90;;;;;;5034677;28;20470;-67
2021/04/19 08:38:11;;;;;;;35.20;25.97;;;7.40;99.90;;;;;;5049540;28;20435;-67
2021/04/19 08:40:39;;;;;;;32.00;25.07;;;7.40;99.90;;;;;;5051008;28;20440;-66
2021/04/19 08:43:12;;;;;;;31.90;26.23;;;7.40;99.90;;;;;;5049508;28;20436;-67
2021/04/19 08:45:40;;;;;;;32.37;26.20;;;7.50;99.90;;;;;;5053180;28;20427;-67
2021/04/19 08:48:11;;;;;;;32.53;25.10;;;7.60;99.90;;;;;;5053357;28;20432;-67
2021/04/19 08:50:38;;;;;;;28.37;24.70;;;7.60;99.90;;;;;;5052454;28;20452;-67
2021/04/19 08:53:08;;;;;;;32.60;25.30;;;7.50;99.90;;;;;;5053144;28;20416;-67
2021/04/19 08:55:34;;;;;;;30.23;25.97;;;7.50;99.90;;;;;;5053048;28;20420;-67
2021/04/19 08:58:00;;;;;;;28.30;25.23;;;7.50;99.90;;;;;;5053115;28;20800;-68
2021/04/19 09:00:26;;;;;;;33.70;25.47;;;7.60;99.90;;;;;;5052690;28;20498;-67
2021/04/19 09:02:52;;;;;;;33.33;26.60;;;7.70;99.90;;;;;;5051153;28;20404;-68
2021/04/19 09:05:22;;;;;;;24.83;22.13;;;7.80;99.90;;;;;;5052875;28;20513;-67
2021/04/19 09:07:49;;;;;;;35.37;26.63;;;7.80;99.90;;;;;;5052890;28;20788;-67
2021/04/19 09:10:18;;;;;;;24.83;21.17;;;7.80;99.90;;;;;;5052473;28;20999;-67
2021/04/19 09:12:44;;;;;;;27.13;24.27;;;7.70;99.90;;;;;;5047588;28;20467;-67
2021/04/19 09:15:15;;;;;;;25.80;21.97;;;7.70;99.90;;;;;;5051030;28;20460;-67
2021/04/19 09:17:42;;;;;;;27.50;24.07;;;7.60;99.90;;;;;;5053835;28;21020;-66
2021/04/19 09:20:11;;;;;;;31.67;24.10;;;7.60;99.90;;;;;;5051028;28;20438;-66
2021/04/19 09:22:37;;;;;;;27.67;24.50;;;7.60;99.90;;;;;;5038874;28;20455;-66
2021/04/19 09:25:13;;;;;;;41.37;25.17;;;7.60;99.90;;;;;;5046751;28;21003;-66
2021/04/19 09:27:49;;;;;;;28.90;25.57;;;7.50;99.90;;;;;;5045138;28;20839;-66
2021/04/19 09:30:30;;;;;;;31.13;25.10;;;7.50;99.90;;;;;;5050816;28;20454;-66
2021/04/19 09:33:02;;;;;;;32.83;26.90;;;7.50;99.90;;;;;;5040520;28;20452;-66
2021/04/19 09:35:41;;;;;;;35.13;29.13;;;7.50;99.90;;;;;;5051582;28;20428;-66
2021/04/19 09:38:12;;;;;;;35.60;27.80;;;7.50;99.90;;;;;;5050990;28;20460;-66
2021/04/19 09:40:49;;;;;;;36.70;25.70;;;7.50;99.90;;;;;;5050406;28;20470;-66
2021/04/19 09:43:33;;;;;;;31.37;26.50;;;7.50;99.90;;;;;;5051235;28;20434;-66
2021/04/19 09:46:06;;;;;;;34.57;27.30;;;7.60;99.90;;;;;;5049935;28;20420;-66
2021/04/19 09:48:31;;;;;;;33.53;27.50;;;7.60;99.90;;;;;;5045295;28;20428;-66
2021/04/19 09:50:59;;;;;;;32.33;28.47;;;7.70;99.90;;;;;;5049067;28;20608;-66
2021/04/19 09:53:26;;;;;;;34.77;27.50;;;7.70;99.90;;;;;;5050605;28;20635;-66
2021/04/19 09:55:52;;;;;;;37.50;27.70;;;7.80;99.90;;;;;;5047639;28;20424;-66
2021/04/19 09:58:18;;;;;;;32.37;26.83;;;7.80;99.90;;;;;;5048903;28;20431;-66
2021/04/19 10:00:45;;;;;;;36.57;29.70;;;8.00;99.90;;;;;;5049693;28;20225;-66
2021/04/19 10:03:11;;;;;;;39.47;31.10;;;8.10;99.90;;;;;;5049614;28;20428;-66
2021/04/19 10:05:38;;;;;;;32.43;28.10;;;8.20;99.90;;;;;;5049878;28;21008;-66
2021/04/19 10:08:05;;;;;;;33.50;26.90;;;8.20;99.90;;;;;;5049293;28;20502;-66
2021/04/19 10:10:32;;;;;;;31.07;25.77;;;8.30;99.90;;;;;;5049356;28;20543;-66
2021/04/19 10:12:58;;;;;;;29.53;26.10;;;8.40;99.90;;;;;;5045091;28;20861;-66
2021/04/19 10:15:25;;;;;;;30.50;25.97;;;8.40;99.90;;;;;;5044287;28;20645;-66
2021/04/19 10:17:51;;;;;;;31.30;26.10;;;8.50;99.90;;;;;;5049326;28;20264;-66
2021/04/19 10:20:24;;;;;;;30.33;27.03;;;8.50;99.90;;;;;;5048477;28;20440;-66
2021/04/19 10:23:10;;;;;;;31.63;27.20;;;8.60;99.90;;;;;;5050572;28;20432;-66
2021/04/19 10:25:45;;;;;;;34.23;28.23;;;8.60;99.90;;;;;;5046023;28;20432;-72
2021/04/19 10:28:11;;;;;;;29.97;25.83;;;8.70;99.90;;;;;;5040736;28;20430;-66
2021/04/19 10:30:37;;;;;;;32.90;28.30;;;8.60;99.90;;;;;;5049692;28;20440;-65
2021/04/19 10:33:03;;;;;;;34.70;27.73;;;8.60;99.90;;;;;;5049859;28;20204;-65
2021/04/19 10:35:36;;;;;;;34.60;28.50;;;8.70;99.90;;;;;;5037488;28;20613;-66
2021/04/19 10:38:03;;;;;;;33.23;28.50;;;8.70;99.90;;;;;;5042928;28;20992;-66
2021/04/19 10:40:29;;;;;;;34.30;27.30;;;8.80;99.90;;;;;;5049843;28;20551;-66
2021/04/19 10:43:09;;;;;;;31.97;27.43;;;8.80;99.90;;;;;;5049998;28;20933;-66
2021/04/19 10:45:35;;;;;;;34.07;27.57;;;8.90;99.90;;;;;;5049869;28;20439;-66
2021/04/19 10:48:24;;;;;;;33.47;27.50;;;8.80;99.90;;;;;;5049554;28;20637;-67
2021/04/19 10:50:51;;;;;;;33.40;26.90;;;8.90;99.90;;;;;;5023830;28;517132;-66
2021/04/19 10:53:37;;;;;;;33.30;29.40;;;8.90;99.90;;;;;;5050599;28;20248;-66
2021/04/19 10:56:04;;;;;;;32.17;27.20;;;8.90;99.90;;;;;;5032685;28;20435;-66
2021/04/19 10:58:35;;;;;;;31.70;26.13;;;8.90;99.90;;;;;;5050382;28;20505;-66
2021/04/19 11:01:01;;;;;;;30.80;26.37;;;9.00;99.90;;;;;;5050321;28;20483;-66
2021/04/19 11:03:37;;;;;;;32.67;25.60;;;9.00;99.90;;;;;;5050192;28;22403;-66
2021/04/19 11:06:05;;;;;;;37.70;31.30;;;9.00;99.90;;;;;;5050542;28;20820;-66
2021/04/19 11:08:57;;;;;;;31.20;26.23;;;9.10;99.90;;;;;;5049322;28;20929;-66
2021/04/19 11:11:35;;;;;;;29.17;24.63;;;9.20;99.90;;;;;;5050222;28;20812;-66
2021/04/19 11:14:19;;;;;;;27.60;23.20;;;9.40;99.90;;;;;;5048333;28;20438;-66
2021/04/19 11:17:04;;;;;;;31.10;25.07;;;9.30;99.90;;;;;;5043419;28;20506;-66
2021/04/19 11:19:44;;;;;;;27.63;23.43;;;9.40;99.90;;;;;;5047337;28;20443;-66
2021/04/19 11:22:32;;;;;;;24.37;21.73;;;9.60;99.90;;;;;;5047977;28;20498;-66
2021/04/19 11:25:17;;;;;;;28.90;22.20;;;9.70;99.90;;;;;;5040707;28;20820;-66
2021/04/19 11:27:43;;;;;;;27.07;24.00;;;9.70;99.90;;;;;;5044319;28;20856;-66
2021/04/19 11:30:27;;;;;;;27.57;23.90;;;9.70;99.90;;;;;;5041224;28;20439;-66
2021/04/19 11:33:12;;;;;;;27.07;21.50;;;9.70;99.90;;;;;;5049966;28;20468;-67
2021/04/19 11:35:46;;;;;;;26.03;21.17;;;9.70;99.90;;;;;;5042272;28;20439;-66
2021/04/19 11:38:21;;;;;;;26.07;21.60;;;9.70;99.90;;;;;;5041256;28;21012;-66
2021/04/19 11:40:49;;;;;;;28.80;22.47;;;9.50;99.90;;;;;;5036426;28;20534;-67
2021/04/19 11:43:25;;;;;;;26.90;23.40;;;9.50;99.90;;;;;;5025670;28;20509;-66
2021/04/19 11:45:58;;;;;;;31.33;25.40;;;9.60;99.90;;;;;;5053478;28;21008;-66
2021/04/19 11:48:24;;;;;;;29.30;22.93;;;9.70;99.90;;;;;;5053108;28;20587;-66
2021/04/19 11:50:50;;;;;;;26.60;22.70;;;9.80;99.90;;;;;;5053143;28;20565;-66
2021/04/19 11:53:20;;;;;;;25.00;21.03;;;9.80;99.90;;;;;;5052434;28;20264;-67
2021/04/19 11:55:46;;;;;;;26.53;23.07;;;9.60;99.90;;;;;;5035708;28;20190;-66
2021/04/19 11:58:12;;;;;;;24.27;21.10;;;9.60;99.90;;;;;;5053646;28;20431;-66
2021/04/19 12:00:37;;;;;;;22.20;19.57;;;9.70;99.90;;;;;;5048384;28;20491;-67
2021/04/19 12:03:03;;;;;;;21.43;19.03;;;9.80;99.90;;;;;;5053049;28;20173;-66
2021/04/19 12:05:28;;;;;;;23.17;19.60;;;9.80;99.90;;;;;;5053466;28;20284;-67
2021/04/19 12:07:54;;;;;;;22.37;20.03;;;10.00;99.90;;;;;;5052986;28;20173;-66
2021/04/19 12:10:19;;;;;;;21.53;18.90;;;10.10;99.90;;;;;;5051964;28;20271;-66
2021/04/19 12:12:46;;;;;;;20.93;18.03;;;10.30;99.90;;;;;;5053290;28;20185;-67
2021/04/19 12:15:12;;;;;;;19.50;17.57;;;10.30;99.90;;;;;;5052949;28;20231;-67
2021/04/19 12:17:38;;;;;;;19.37;17.20;;;10.60;99.90;;;;;;5046115;28;20472;-67
2021/04/19 12:20:05;;;;;;;22.33;19.47;;;10.80;99.90;;;;;;5053456;28;20470;-66
2021/04/19 12:22:31;;;;;;;21.50;18.37;;;10.70;99.90;;;;;;5052950;28;20213;-66
2021/04/19 12:24:56;;;;;;;19.83;17.77;;;10.70;99.90;;;;;;5050171;28;20514;-66
2021/04/19 12:27:22;;;;;;;20.90;17.93;;;10.50;99.90;;;;;;5053151;28;20247;-66
2021/04/19 12:29:48;;;;;;;21.33;19.07;;;10.50;99.90;;;;;;5052038;28;20177;-66
2021/04/19 12:32:14;;;;;;;20.00;17.23;;;10.50;99.90;;;;;;5045511;28;20976;-67
2021/04/19 12:34:41;;;;;;;21.30;17.70;;;10.40;99.90;;;;;;5053233;28;20447;-66
2021/04/19 12:37:06;;;;;;;21.33;19.10;;;10.30;99.90;;;;;;5041707;28;20639;-67
2021/04/19 12:39:32;;;;;;;18.70;16.70;;;10.40;99.90;;;;;;5049863;28;20515;-67
2021/04/19 12:41:57;;;;;;;18.50;16.73;;;10.40;99.90;;;;;;5053049;28;20200;-66
2021/04/19 12:44:24;;;;;;;23.50;18.57;;;10.50;99.90;;;;;;5052094;28;20213;-66
2021/04/19 12:46:53;;;;;;;18.93;17.13;;;10.30;99.90;;;;;;5050627;28;20214;-66
2021/04/19 12:49:21;;;;;;;19.63;17.20;;;10.20;99.90;;;;;;5046099;28;20484;-66